Time;durP1;ratioP1;P1;durP2;ratioP2;P2;SDS_P1;SDS_P2;PMS_P1;PMS_P2;Temp;Humidity;BMP_temperature;BMP_pressure;BME280_temperature;BME280_humidity;BME280_pressure;Samples;Min_cycle;Max_cycle;Signal;HPM_P1;HPM_P2
2022/10/09 00:01:31;;;;;;;2.93;2.40;;;8.90;99.90;;;;;;5072993;28;20184;-67
2022/10/09 00:03:57;;;;;;;4.73;2.57;;;8.90;99.90;;;;;;5072370;28;20192;-67
2022/10/09 00:06:29;;;;;;;6.40;2.67;;;8.90;99.90;;;;;;5074080;28;21026;-72
2022/10/09 00:08:55;;;;;;;3.07;2.33;;;8.90;99.90;;;;;;5075776;28;20914;-67
2022/10/09 00:11:23;;;;;;;4.43;2.20;;;8.80;99.90;;;;;;5076419;28;20532;-70
2022/10/09 00:13:50;;;;;;;5.00;2.33;;;8.80;99.90;;;;;;5076478;28;20192;-71
2022/10/09 00:16:18;;;;;;;6.93;2.50;;;8.80;99.90;;;;;;5077048;28;20422;-67
2022/10/09 00:18:44;;;;;;;3.73;2.30;;;8.80;99.90;;;;;;5077058;28;20402;-67
2022/10/09 00:21:27;;;;;;;6.00;2.20;;;8.80;99.90;;;;;;5076934;28;20528;-71
2022/10/09 00:23:55;;;;;;;18.97;2.67;;;8.80;99.90;;;;;;5076032;28;20491;-67
2022/10/09 00:26:21;;;;;;;6.37;2.60;;;8.70;99.90;;;;;;5076453;28;21229;-71
2022/10/09 00:28:47;;;;;;;3.20;2.70;;;8.70;99.90;;;;;;5076495;28;20395;-67
2022/10/09 00:31:13;;;;;;;6.07;2.57;;;8.70;99.90;;;;;;5076681;28;20171;-70
2022/10/09 00:33:39;;;;;;;6.80;2.10;;;8.70;99.90;;;;;;5075942;28;20244;-72
2022/10/09 00:36:11;;;;;;;3.40;2.57;;;8.70;99.90;;;;;;5076613;28;20433;-67
2022/10/09 00:38:37;;;;;;;5.33;2.60;;;8.70;99.90;;;;;;5076546;28;20475;-68
2022/10/09 00:41:03;;;;;;;5.17;1.97;;;8.70;99.90;;;;;;5076480;28;20398;-67
2022/10/09 00:43:49;;;;;;;5.10;2.30;;;8.70;99.90;;;;;;5075832;28;20414;-68
2022/10/09 00:46:47;;;;;;;5.40;2.53;;;8.70;99.90;;;;;;5076270;28;20198;-71
2022/10/09 00:49:19;;;;;;;7.23;2.07;;;8.70;99.90;;;;;;5076372;28;20413;-67
2022/10/09 00:51:48;;;;;;;9.80;3.03;;;8.70;99.90;;;;;;5076201;28;20391;-71
2022/10/09 00:54:17;;;;;;;6.97;2.00;;;8.70;99.90;;;;;;5075504;28;20417;-71
2022/10/09 00:56:43;;;;;;;6.70;2.93;;;8.80;99.90;;;;;;5076117;28;20480;-71
2022/10/09 00:59:09;;;;;;;18.67;3.00;;;8.70;99.90;;;;;;5076215;28;20428;-71
2022/10/09 01:01:35;;;;;;;7.77;1.90;;;8.70;99.90;;;;;;5075982;28;20402;-67
2022/10/09 01:04:01;;;;;;;3.27;2.33;;;8.80;99.90;;;;;;5074797;28;20419;-67
2022/10/09 01:06:56;;;;;;;6.73;2.43;;;8.80;99.90;;;;;;5075995;28;20212;-67
2022/10/09 01:09:30;;;;;;;7.13;2.33;;;8.80;99.90;;;;;;5075986;28;20249;-67
2022/10/09 01:12:20;;;;;;;8.27;2.90;;;8.70;99.90;;;;;;5076251;28;20398;-71
2022/10/09 01:15:08;;;;;;;2.70;2.10;;;8.70;99.90;;;;;;5075185;28;20395;-71
2022/10/09 01:17:39;;;;;;;3.60;2.33;;;8.70;99.90;;;;;;5074910;28;20478;-70
2022/10/09 01:20:35;;;;;;;3.00;2.77;;;8.70;99.90;;;;;;5075710;28;20410;-71
2022/10/09 01:23:00;;;;;;;11.33;2.50;;;8.70;99.90;;;;;;5075391;28;20927;-67
2022/10/09 01:25:34;;;;;;;5.03;2.13;;;8.70;99.90;;;;;;5074989;28;20459;-67
2022/10/09 01:28:01;;;;;;;7.30;2.43;;;8.70;99.90;;;;;;5075594;28;20675;-68
2022/10/09 01:30:28;;;;;;;3.97;2.00;;;8.70;99.90;;;;;;5075738;28;20396;-67
2022/10/09 01:32:54;;;;;;;8.17;2.83;;;8.70;99.90;;;;;;5074451;28;20436;-70
2022/10/09 01:35:21;;;;;;;8.70;3.10;;;8.80;99.90;;;;;;5074783;28;20418;-70
2022/10/09 01:37:49;;;;;;;6.80;3.23;;;8.80;99.90;;;;;;5075521;28;20385;-71
2022/10/09 01:40:17;;;;;;;4.30;2.50;;;8.80;99.90;;;;;;5074876;28;20377;-68
2022/10/09 01:42:45;;;;;;;4.10;2.50;;;8.90;99.90;;;;;;5075403;28;20938;-67
2022/10/09 01:45:12;;;;;;;3.50;2.30;;;8.90;99.90;;;;;;5074529;28;20520;-71
2022/10/09 01:47:38;;;;;;;9.67;3.13;;;8.90;99.90;;;;;;5075310;28;20472;-70
2022/10/09 01:50:36;;;;;;;6.10;3.07;;;8.90;99.90;;;;;;5073826;28;20944;-71
2022/10/09 01:53:09;;;;;;;11.30;3.07;;;8.80;99.90;;;;;;5065058;28;20259;-71
2022/10/09 01:55:37;;;;;;;7.10;2.80;;;8.80;99.90;;;;;;5074247;28;20424;-68
2022/10/09 01:58:21;;;;;;;6.50;3.13;;;8.80;99.90;;;;;;5074465;28;20422;-69
2022/10/09 02:01:28;;;;;;;5.50;3.00;;;8.80;99.90;;;;;;5074939;28;20488;-71
2022/10/09 02:03:56;;;;;;;7.83;2.80;;;8.70;99.90;;;;;;5031922;28;20435;-71
2022/10/09 02:06:22;;;;;;;3.73;2.67;;;8.70;99.90;;;;;;5032436;28;20459;-71
2022/10/09 02:08:51;;;;;;;2.57;2.37;;;8.70;99.90;;;;;;5053662;28;20462;-71
2022/10/09 02:11:17;;;;;;;11.90;3.30;;;8.70;99.90;;;;;;5074716;28;20464;-67
2022/10/09 02:13:48;;;;;;;4.70;2.83;;;8.60;99.90;;;;;;5074082;28;20886;-68
2022/10/09 02:16:25;;;;;;;8.37;2.90;;;8.60;99.90;;;;;;5074190;28;20424;-70
2022/10/09 02:19:11;;;;;;;6.23;3.00;;;8.70;99.90;;;;;;5073282;28;20408;-68
2022/10/09 02:21:46;;;;;;;3.50;3.13;;;8.60;99.90;;;;;;5074883;28;20400;-71
2022/10/09 02:24:15;;;;;;;5.73;5.03;;;8.60;99.90;;;;;;5073931;28;20376;-71
2022/10/09 02:26:41;;;;;;;9.83;4.40;;;8.60;99.90;;;;;;5074321;28;20847;-71
2022/10/09 02:29:08;;;;;;;15.53;4.07;;;8.60;99.90;;;;;;5074078;28;20486;-68
2022/10/09 02:31:37;;;;;;;3.90;2.43;;;8.60;99.90;;;;;;5074366;28;20930;-68
2022/10/09 02:34:05;;;;;;;10.00;2.77;;;8.70;99.90;;;;;;5073641;28;20412;-69
2022/10/09 02:36:31;;;;;;;10.83;4.60;;;8.70;99.90;;;;;;5073654;28;20480;-70
2022/10/09 02:38:58;;;;;;;2.70;2.50;;;8.70;99.90;;;;;;5074287;28;20405;-71
2022/10/09 02:41:24;;;;;;;7.30;3.10;;;8.80;99.90;;;;;;5072900;28;20430;-68
2022/10/09 02:43:50;;;;;;;9.73;3.83;;;8.80;99.90;;;;;;5073555;28;20494;-67
2022/10/09 02:46:16;;;;;;;5.47;2.47;;;8.80;99.90;;;;;;5072921;28;20456;-67
2022/10/09 02:48:42;;;;;;;8.10;2.80;;;8.80;99.90;;;;;;5073994;28;20898;-71
2022/10/09 02:51:08;;;;;;;5.43;2.93;;;8.70;99.90;;;;;;5074144;28;20429;-68
2022/10/09 02:53:34;;;;;;;7.50;2.60;;;8.70;99.90;;;;;;5072224;28;20518;-72
2022/10/09 02:56:00;;;;;;;5.40;3.37;;;8.70;99.90;;;;;;5073328;28;20672;-71
2022/10/09 02:58:28;;;;;;;6.67;2.97;;;8.70;99.90;;;;;;5073848;28;20414;-71
2022/10/09 03:00:54;;;;;;;7.30;2.60;;;8.60;99.90;;;;;;5073729;28;20246;-68
2022/10/09 03:03:19;;;;;;;3.83;2.80;;;8.60;99.90;;;;;;5073762;28;20895;-72
2022/10/09 03:05:45;;;;;;;2.57;2.10;;;8.60;99.90;;;;;;5073138;28;20677;-68
2022/10/09 03:08:13;;;;;;;4.53;2.80;;;8.60;99.90;;;;;;5073618;28;20205;-72
2022/10/09 03:10:39;;;;;;;8.50;2.83;;;8.60;99.90;;;;;;5073433;28;20396;-71
2022/10/09 03:13:06;;;;;;;7.33;2.87;;;8.50;99.90;;;;;;5073169;28;20402;-68
2022/10/09 03:15:36;;;;;;;2.87;2.60;;;8.50;99.90;;;;;;5072899;28;20421;-68
2022/10/09 03:18:02;;;;;;;8.93;3.03;;;8.50;99.90;;;;;;5072204;28;20946;-68
2022/10/09 03:20:31;;;;;;;4.63;2.93;;;8.50;99.90;;;;;;5073502;28;20408;-68
2022/10/09 03:22:57;;;;;;;4.90;2.40;;;8.50;99.90;;;;;;5073583;28;20418;-71
2022/10/09 03:25:23;;;;;;;9.57;3.60;;;8.50;99.90;;;;;;5072787;28;20435;-71
2022/10/09 03:27:49;;;;;;;2.83;2.63;;;8.50;99.90;;;;;;5072127;28;20256;-71
2022/10/09 03:30:15;;;;;;;5.10;3.00;;;8.50;99.90;;;;;;5073097;28;20399;-67
2022/10/09 03:32:40;;;;;;;7.30;3.20;;;8.50;99.90;;;;;;5073550;28;20535;-68
2022/10/09 03:35:06;;;;;;;6.43;2.83;;;8.50;99.90;;;;;;5071568;28;20686;-72
2022/10/09 03:37:32;;;;;;;4.73;2.33;;;8.50;99.90;;;;;;5073478;28;20180;-67
2022/10/09 03:39:58;;;;;;;10.73;3.70;;;8.50;99.90;;;;;;5073538;28;20746;-68
2022/10/09 03:42:24;;;;;;;3.60;2.50;;;8.50;99.90;;;;;;5072518;28;20181;-67
2022/10/09 03:44:50;;;;;;;2.20;2.00;;;8.50;99.90;;;;;;5072261;28;20377;-69
2022/10/09 03:47:16;;;;;;;9.70;3.20;;;8.60;99.90;;;;;;5073228;28;20464;-68
2022/10/09 03:49:42;;;;;;;6.83;2.77;;;8.60;99.90;;;;;;5072296;28;20205;-68
2022/10/09 03:52:07;;;;;;;5.23;2.70;;;8.60;99.90;;;;;;5073378;28;20467;-69
2022/10/09 03:54:33;;;;;;;5.30;3.00;;;8.60;99.90;;;;;;5071565;28;20379;-67
2022/10/09 03:56:59;;;;;;;6.87;2.77;;;8.60;99.90;;;;;;5071816;28;20197;-70
2022/10/09 03:59:25;;;;;;;2.57;2.10;;;8.60;99.90;;;;;;5073150;28;20203;-68
2022/10/09 04:01:51;;;;;;;4.20;3.10;;;8.60;99.90;;;;;;5073267;28;20212;-68
2022/10/09 04:04:16;;;;;;;5.50;2.90;;;8.60;99.90;;;;;;5071027;28;20270;-71
2022/10/09 04:06:42;;;;;;;8.13;2.50;;;8.60;99.90;;;;;;5072768;28;20459;-70
2022/10/09 04:09:08;;;;;;;10.27;3.07;;;8.60;99.90;;;;;;5073008;28;20528;-67
2022/10/09 04:11:34;;;;;;;3.73;2.40;;;8.50;99.90;;;;;;5072983;28;20184;-71
2022/10/09 04:14:00;;;;;;;3.10;2.40;;;8.50;99.90;;;;;;5072376;28;20596;-68
2022/10/09 04:16:25;;;;;;;3.30;2.80;;;8.50;99.90;;;;;;5071690;28;20449;-71
2022/10/09 04:18:51;;;;;;;7.53;3.80;;;8.50;99.90;;;;;;5073055;28;20777;-71
2022/10/09 04:21:17;;;;;;;8.27;3.83;;;8.40;99.90;;;;;;5073302;28;20174;-69
2022/10/09 04:23:42;;;;;;;7.73;3.20;;;8.40;99.90;;;;;;5071800;28;20170;-72
2022/10/09 04:26:11;;;;;;;8.77;3.13;;;8.40;99.90;;;;;;5071580;28;20211;-71
2022/10/09 04:28:36;;;;;;;4.80;2.77;;;8.40;99.90;;;;;;5073071;28;20182;-71
2022/10/09 04:31:03;;;;;;;3.23;2.70;;;8.30;99.90;;;;;;5071996;28;20418;-68
2022/10/09 04:33:29;;;;;;;4.17;3.10;;;8.30;99.90;;;;;;5072483;28;20205;-68
2022/10/09 04:35:56;;;;;;;3.60;2.90;;;8.30;99.90;;;;;;5072382;28;20839;-72
2022/10/09 04:38:22;;;;;;;7.20;3.10;;;8.40;99.90;;;;;;5072824;28;20404;-71
2022/10/09 04:41:02;;;;;;;3.93;2.97;;;8.40;99.90;;;;;;5072563;28;20383;-69
2022/10/09 04:43:29;;;;;;;7.30;2.80;;;8.40;99.90;;;;;;5072453;28;20390;-68
2022/10/09 04:45:55;;;;;;;3.83;2.73;;;8.30;99.90;;;;;;5072105;28;20471;-71
2022/10/09 04:48:21;;;;;;;5.33;3.13;;;8.30;99.90;;;;;;5072878;28;20407;-71
2022/10/09 04:50:47;;;;;;;11.13;2.93;;;8.30;99.90;;;;;;5072749;28;20409;-71
2022/10/09 04:53:13;;;;;;;5.07;3.73;;;8.30;99.90;;;;;;5073614;28;20411;-71
2022/10/09 04:55:43;;;;;;;6.73;4.07;;;8.20;99.90;;;;;;5075443;28;20179;-70
2022/10/09 04:58:10;;;;;;;4.80;3.63;;;8.30;99.90;;;;;;5076346;28;20408;-67
2022/10/09 05:00:43;;;;;;;4.90;3.73;;;8.20;99.90;;;;;;5075667;28;20413;-67
2022/10/09 05:03:09;;;;;;;3.10;2.80;;;8.20;99.90;;;;;;5075947;28;20458;-71
2022/10/09 05:05:35;;;;;;;16.23;7.77;;;8.30;99.90;;;;;;5075216;28;20970;-71
2022/10/09 05:08:00;;;;;;;18.53;10.40;;;8.30;99.90;;;;;;5075840;28;20430;-71
2022/10/09 05:10:26;;;;;;;9.87;4.27;;;8.20;99.90;;;;;;5075924;28;20623;-71
2022/10/09 05:12:52;;;;;;;7.97;4.10;;;8.20;99.90;;;;;;5075837;28;20630;-71
2022/10/09 05:15:18;;;;;;;5.20;4.20;;;8.20;99.90;;;;;;5075152;28;20186;-71
2022/10/09 05:17:44;;;;;;;6.23;4.13;;;8.20;99.90;;;;;;5075744;28;20167;-71
2022/10/09 05:20:10;;;;;;;4.73;4.10;;;8.20;99.90;;;;;;5075737;28;20498;-68
2022/10/09 05:22:35;;;;;;;4.50;3.57;;;8.20;99.90;;;;;;5075844;28;20408;-71
2022/10/09 05:25:01;;;;;;;5.97;4.27;;;8.20;99.90;;;;;;5074969;28;20710;-71
2022/10/09 05:27:27;;;;;;;11.07;4.20;;;8.10;99.90;;;;;;5075817;28;20665;-67
2022/10/09 05:29:52;;;;;;;4.40;3.80;;;8.10;99.90;;;;;;5075635;28;20179;-68
2022/10/09 05:32:18;;;;;;;5.47;3.60;;;8.10;99.90;;;;;;5075696;28;20171;-68
2022/10/09 05:34:44;;;;;;;5.00;3.73;;;8.10;99.90;;;;;;5074736;28;20172;-71
2022/10/09 05:37:09;;;;;;;9.77;4.60;;;8.10;99.90;;;;;;5075216;28;20177;-72
2022/10/09 05:39:37;;;;;;;4.93;4.53;;;8.10;99.90;;;;;;5074410;28;20182;-71
2022/10/09 05:42:02;;;;;;;5.97;4.40;;;8.10;99.90;;;;;;5075212;28;20170;-67
2022/10/09 05:44:28;;;;;;;5.50;4.43;;;8.10;99.90;;;;;;5074813;28;20500;-71
2022/10/09 05:46:54;;;;;;;9.13;4.70;;;8.10;99.90;;;;;;5075162;28;20614;-71
2022/10/09 05:49:19;;;;;;;4.90;4.50;;;8.10;99.90;;;;;;5075274;28;20251;-71
2022/10/09 05:51:45;;;;;;;4.63;4.23;;;8.10;99.90;;;;;;5075247;28;20753;-72
2022/10/09 05:54:16;;;;;;;9.77;4.57;;;8.10;99.90;;;;;;5072974;28;20179;-70
2022/10/09 05:56:43;;;;;;;5.07;4.53;;;8.20;99.90;;;;;;5074707;28;20247;-71
2022/10/09 05:59:14;;;;;;;5.63;4.43;;;8.20;99.90;;;;;;5075084;28;20413;-67
2022/10/09 06:01:42;;;;;;;7.50;4.60;;;8.20;99.90;;;;;;5074702;28;20408;-67
2022/10/09 06:04:13;;;;;;;11.70;6.03;;;8.20;99.90;;;;;;5073164;28;20421;-70
2022/10/09 06:06:40;;;;;;;6.10;5.00;;;8.30;99.90;;;;;;5074879;28;20473;-75
2022/10/09 06:09:07;;;;;;;5.60;4.50;;;8.30;99.90;;;;;;5074822;28;20952;-75
2022/10/09 06:11:35;;;;;;;11.40;4.90;;;8.30;99.90;;;;;;5074815;28;20393;-70
2022/10/09 06:14:03;;;;;;;8.07;4.77;;;8.30;99.90;;;;;;5073609;28;20428;-68
2022/10/09 06:16:34;;;;;;;8.37;4.80;;;8.40;99.90;;;;;;5074512;28;20426;-67
2022/10/09 06:19:01;;;;;;;5.40;4.27;;;8.40;99.90;;;;;;5073330;28;20391;-67
2022/10/09 06:21:27;;;;;;;4.80;4.40;;;8.30;99.90;;;;;;5073376;28;20455;-68
2022/10/09 06:23:57;;;;;;;6.63;4.60;;;8.30;99.90;;;;;;5073795;28;20416;-67
2022/10/09 06:26:24;;;;;;;6.10;5.57;;;8.40;99.90;;;;;;5074163;28;20455;-68
2022/10/09 06:28:50;;;;;;;4.63;4.10;;;8.40;99.90;;;;;;5074603;28;20960;-71
2022/10/09 06:31:21;;;;;;;6.33;5.10;;;8.40;99.90;;;;;;5073966;28;20370;-71
2022/10/09 06:33:48;;;;;;;6.00;4.87;;;8.50;99.90;;;;;;5073830;28;20433;-70
2022/10/09 06:36:25;;;;;;;8.20;5.97;;;8.50;99.90;;;;;;5074259;28;20412;-71
2022/10/09 06:38:52;;;;;;;10.53;4.90;;;8.60;99.90;;;;;;5074336;28;20496;-71
2022/10/09 06:41:20;;;;;;;8.47;4.97;;;8.60;99.90;;;;;;5073275;28;20483;-71
2022/10/09 06:43:54;;;;;;;6.83;5.13;;;8.60;99.90;;;;;;5072389;28;20396;-68
2022/10/09 06:46:23;;;;;;;5.67;4.77;;;8.70;99.90;;;;;;5073931;28;20420;-70
2022/10/09 06:48:48;;;;;;;8.83;5.00;;;8.70;99.90;;;;;;5073534;28;20758;-71
2022/10/09 06:51:17;;;;;;;6.07;5.17;;;8.70;99.90;;;;;;5072967;28;20456;-71
2022/10/09 06:53:45;;;;;;;7.33;4.90;;;8.70;99.90;;;;;;5073342;28;20172;-68
2022/10/09 06:56:11;;;;;;;8.67;5.30;;;8.80;99.90;;;;;;5072614;28;20418;-68
2022/10/09 06:58:38;;;;;;;15.00;5.60;;;8.80;99.90;;;;;;5073784;28;20494;-71
2022/10/09 07:01:13;;;;;;;6.83;5.20;;;8.80;99.90;;;;;;5073997;28;20412;-68
2022/10/09 07:03:40;;;;;;;6.83;4.17;;;8.90;99.90;;;;;;5072030;28;20570;-68
2022/10/09 07:06:16;;;;;;;7.07;5.30;;;8.90;99.90;;;;;;5072956;28;20433;-68
2022/10/09 07:08:43;;;;;;;9.00;5.73;;;9.00;99.90;;;;;;5073558;28;20890;-71
2022/10/09 07:11:12;;;;;;;7.83;5.37;;;9.00;99.90;;;;;;5073654;28;20375;-72
2022/10/09 07:13:38;;;;;;;9.07;5.40;;;9.10;99.90;;;;;;5073080;28;20407;-72
2022/10/09 07:16:05;;;;;;;7.47;4.43;;;9.20;99.90;;;;;;5073505;28;20954;-71
2022/10/09 07:18:34;;;;;;;7.37;5.30;;;9.30;99.90;;;;;;5073443;28;20400;-72
2022/10/09 07:21:06;;;;;;;6.40;4.50;;;9.30;99.90;;;;;;5073460;28;20378;-71
2022/10/09 07:23:32;;;;;;;10.90;5.30;;;9.40;99.90;;;;;;5072876;28;20374;-68
2022/10/09 07:25:59;;;;;;;6.67;4.47;;;9.50;99.90;;;;;;5072830;28;20426;-71
2022/10/09 07:28:27;;;;;;;7.47;4.60;;;9.60;99.90;;;;;;5073627;28;20470;-71
2022/10/09 07:30:53;;;;;;;6.87;4.50;;;9.60;99.90;;;;;;5073469;28;20408;-71
2022/10/09 07:33:18;;;;;;;5.67;5.10;;;9.70;99.90;;;;;;5073411;28;20399;-71
2022/10/09 07:35:55;;;;;;;9.93;5.00;;;9.80;99.90;;;;;;5072791;28;20194;-68
2022/10/09 07:38:21;;;;;;;8.43;5.10;;;9.90;99.90;;;;;;5073558;28;20181;-68
2022/10/09 07:40:48;;;;;;;11.20;5.37;;;10.00;99.90;;;;;;5073212;28;20388;-71
2022/10/09 07:43:14;;;;;;;6.70;4.70;;;10.10;99.90;;;;;;5072979;28;20400;-71
2022/10/09 07:45:39;;;;;;;9.63;5.13;;;10.20;99.90;;;;;;5072504;28;20423;-71
2022/10/09 07:48:05;;;;;;;7.17;5.23;;;10.30;1.00;;;;;;5073430;28;20944;-71
2022/10/09 07:50:30;;;;;;;12.40;5.70;;;10.40;1.00;;;;;;5073459;28;20158;-68
2022/10/09 07:52:56;;;;;;;8.50;4.60;;;10.40;1.00;;;;;;5072223;28;20257;-69
2022/10/09 07:55:22;;;;;;;7.77;5.60;;;10.50;1.00;;;;;;5071560;28;20239;-68
2022/10/09 07:57:47;;;;;;;8.17;4.70;;;10.60;1.00;;;;;;5073359;28;20197;-71
2022/10/09 08:00:13;;;;;;;6.03;4.77;;;10.60;1.00;;;;;;5071817;28;20640;-68
2022/10/09 08:02:39;;;;;;;12.50;5.50;;;10.70;1.00;;;;;;5072105;28;20193;-72
2022/10/09 08:05:04;;;;;;;9.97;5.60;;;10.80;1.00;;;;;;5071332;28;20200;-72
2022/10/09 08:07:30;;;;;;;15.63;5.50;;;10.80;1.00;;;;;;5071632;28;20205;-68
2022/10/09 08:09:56;;;;;;;9.53;4.77;;;10.90;1.00;;;;;;5071804;28;20181;-68
2022/10/09 08:12:21;;;;;;;9.10;5.17;;;11.10;1.00;;;;;;5073162;28;20174;-69
2022/10/09 08:14:47;;;;;;;7.63;4.50;;;11.10;1.00;;;;;;5072237;28;20166;-72
2022/10/09 08:17:14;;;;;;;7.10;4.27;;;11.10;1.00;;;;;;5072489;28;20171;-72
2022/10/09 08:19:40;;;;;;;9.20;5.07;;;11.20;99.90;;;;;;5073109;28;20433;-70
2022/10/09 08:22:05;;;;;;;5.80;4.57;;;11.30;1.00;;;;;;5073053;28;20416;-71
2022/10/09 08:24:31;;;;;;;7.10;5.27;;;11.40;1.00;;;;;;5072285;28;20189;-71
2022/10/09 08:26:57;;;;;;;15.07;4.80;;;11.50;99.90;;;;;;5071846;28;20198;-69
2022/10/09 08:29:22;;;;;;;8.57;5.20;;;11.60;99.90;;;;;;5076571;28;20220;-70
2022/10/09 08:31:48;;;;;;;7.47;4.87;;;11.70;99.90;;;;;;5076786;28;20626;-70
2022/10/09 08:34:13;;;;;;;5.60;4.27;;;11.80;99.90;;;;;;5075831;28;20241;-66
2022/10/09 08:36:39;;;;;;;6.73;4.30;;;11.90;99.90;;;;;;5076759;28;20197;-69
2022/10/09 08:39:05;;;;;;;7.10;3.77;;;12.00;99.90;;;;;;5075692;28;20205;-67
2022/10/09 08:41:47;;;;;;;8.53;4.53;;;12.10;99.90;;;;;;5076498;28;20577;-69
2022/10/09 08:44:25;;;;;;;5.10;3.60;;;12.30;99.90;;;;;;5075930;28;20177;-70
2022/10/09 08:47:21;;;;;;;5.40;3.83;;;12.20;99.90;;;;;;5076365;28;20923;-71
2022/10/09 08:50:09;;;;;;;13.13;4.40;;;12.30;99.90;;;;;;5076080;28;20387;-68
2022/10/09 08:52:52;;;;;;;9.03;3.97;;;12.30;99.90;;;;;;5076731;28;20426;-71
2022/10/09 08:55:53;;;;;;;3.50;3.10;;;12.30;99.90;;;;;;5075519;28;20419;-68
2022/10/09 08:58:20;;;;;;;8.53;3.63;;;12.50;99.90;;;;;;5054480;28;20773;-69
2022/10/09 09:01:06;;;;;;;5.67;3.00;;;12.60;99.90;;;;;;5076168;28;20387;-69
2022/10/09 09:03:44;;;;;;;9.50;3.27;;;12.70;99.90;;;;;;5074536;28;20442;-69
2022/10/09 09:06:30;;;;;;;6.50;3.20;;;12.90;99.90;;;;;;5074623;28;20548;-67
2022/10/09 09:09:01;;;;;;;5.40;2.73;;;13.10;99.90;;;;;;5074940;28;20404;-70
2022/10/09 09:11:32;;;;;;;6.80;2.80;;;13.30;99.90;;;;;;5075573;28;20393;-70
2022/10/09 09:14:28;;;;;;;7.93;2.70;;;13.60;99.90;;;;;;5075210;28;20379;-70
2022/10/09 09:17:05;;;;;;;4.70;3.00;;;13.90;99.90;;;;;;5075731;28;20440;-68
2022/10/09 09:19:30;;;;;;;2.87;2.60;;;14.20;99.90;;;;;;5075660;28;20881;-69
2022/10/09 09:21:57;;;;;;;5.13;2.80;;;14.50;99.90;;;;;;5074737;28;20736;-68
2022/10/09 09:24:49;;;;;;;4.67;2.70;;;14.70;99.90;;;;;;5075033;28;20170;-70
2022/10/09 09:27:18;;;;;;;5.77;2.57;;;14.90;99.90;;;;;;5074417;28;20459;-69
2022/10/09 09:30:10;;;;;;;3.10;2.00;;;15.10;99.90;;;;;;5075168;28;20404;-68
2022/10/09 09:32:42;;;;;;;3.10;2.10;;;15.30;99.90;;;;;;5072526;28;20913;-69
2022/10/09 09:35:10;;;;;;;3.27;2.10;;;15.50;66.70;;;;;;5073890;28;20462;-72
2022/10/09 09:37:36;;;;;;;2.97;2.67;;;15.70;22.00;;;;;;5075660;28;20405;-68
2022/10/09 09:40:03;;;;;;;4.17;2.10;;;15.80;19.80;;;;;;5074294;28;20436;-70
2022/10/09 09:42:29;;;;;;;2.73;2.30;;;16.10;1.00;;;;;;5075432;28;20174;-67
2022/10/09 09:45:02;;;;;;;3.73;1.93;;;16.20;7.60;;;;;;5074718;28;20405;-69
2022/10/09 09:47:54;;;;;;;2.20;1.87;;;16.40;1.00;;;;;;5073719;28;20202;-69
2022/10/09 09:50:39;;;;;;;2.67;1.80;;;16.40;1.00;;;;;;5075232;28;20405;-69
2022/10/09 09:53:24;;;;;;;5.43;1.87;;;16.50;1.00;;;;;;5075189;28;20400;-67
2022/10/09 09:55:53;;;;;;;5.53;3.17;;;16.70;1.00;;;;;;5074704;28;20400;-68
2022/10/09 09:58:20;;;;;;;4.47;2.13;;;16.90;1.00;;;;;;5075057;28;20791;-69
2022/10/09 10:01:00;;;;;;;3.93;1.70;;;17.30;1.00;;;;;;5074899;28;20899;-68
2022/10/09 10:03:26;;;;;;;3.80;2.50;;;17.70;1.00;;;;;;5074678;28;20461;-70
2022/10/09 10:05:52;;;;;;;4.13;1.63;;;17.60;1.00;;;;;;5073940;28;20436;-69
2022/10/09 10:08:30;;;;;;;4.17;1.97;;;17.40;1.00;;;;;;5074724;28;20454;-69
2022/10/09 10:10:58;;;;;;;9.20;2.83;;;17.50;1.00;;;;;;5074988;28;20400;-68
2022/10/09 10:13:37;;;;;;;5.53;1.57;;;17.50;1.00;;;;;;5074595;28;20876;-68
2022/10/09 10:16:04;;;;;;;2.43;1.37;;;17.60;1.00;;;;;;5074566;28;20462;-70
2022/10/09 10:18:36;;;;;;;4.23;1.43;;;17.80;1.00;;;;;;5073360;28;20408;-69
2022/10/09 10:21:09;;;;;;;2.33;1.30;;;17.70;1.00;;;;;;5074613;28;20409;-69
2022/10/09 10:23:59;;;;;;;2.73;1.27;;;18.00;1.00;;;;;;5073118;28;20408;-69
2022/10/09 10:26:45;;;;;;;4.47;1.50;;;18.30;1.00;;;;;;5073840;28;20448;-70
2022/10/09 10:29:23;;;;;;;4.87;1.23;;;18.50;1.00;;;;;;5074585;28;20484;-69
2022/10/09 10:32:04;;;;;;;3.00;1.10;;;18.70;1.00;;;;;;5074474;28;20409;-68
2022/10/09 10:34:35;;;;;;;3.43;1.57;;;18.20;1.00;;;;;;5073582;28;20397;-69
2022/10/09 10:37:18;;;;;;;3.97;1.60;;;17.40;1.00;;;;;;5073299;28;20461;-68
2022/10/09 10:40:06;;;;;;;6.63;1.77;;;16.90;1.00;;;;;;5072969;28;20408;-72
2022/10/09 10:43:13;;;;;;;5.03;1.53;;;16.40;1.00;;;;;;5072550;28;20439;-70
2022/10/09 10:45:42;;;;;;;2.90;1.93;;;15.90;1.00;;;;;;5073097;28;20513;-70
2022/10/09 10:48:30;;;;;;;3.57;2.20;;;15.50;1.00;;;;;;5072850;28;20451;-69
2022/10/09 10:51:15;;;;;;;3.90;1.90;;;15.40;1.00;;;;;;5073743;28;20781;-70
2022/10/09 10:53:55;;;;;;;3.53;1.30;;;15.30;1.00;;;;;;5073460;28;20408;-70
2022/10/09 10:56:46;;;;;;;3.10;1.43;;;15.40;1.00;;;;;;5073822;28;20813;-70
2022/10/09 10:59:38;;;;;;;5.63;1.70;;;15.50;1.00;;;;;;5068984;28;20507;-69
2022/10/09 11:02:15;;;;;;;5.50;1.17;;;15.60;1.00;;;;;;5073753;28;20396;-68
2022/10/09 11:05:14;;;;;;;1.80;1.13;;;15.70;1.00;;;;;;5072545;28;20392;-69
2022/10/09 11:07:51;;;;;;;1.60;1.20;;;15.80;1.00;;;;;;5073777;28;20446;-68
2022/10/09 11:10:16;;;;;;;2.87;1.30;;;15.90;1.00;;;;;;5072623;28;20404;-68
2022/10/09 11:12:51;;;;;;;7.20;1.40;;;15.90;1.00;;;;;;5073596;28;20416;-67
2022/10/09 11:15:45;;;;;;;3.23;1.83;;;15.90;1.00;;;;;;5073024;28;20209;-68
2022/10/09 11:18:31;;;;;;;6.50;1.90;;;15.90;1.00;;;;;;5073587;28;20915;-68
2022/10/09 11:21:02;;;;;;;2.70;1.20;;;16.00;1.00;;;;;;5073176;28;20434;-69
2022/10/09 11:23:46;;;;;;;5.70;1.60;;;16.20;1.00;;;;;;5073346;28;20404;-69
2022/10/09 11:26:30;;;;;;;2.63;1.73;;;16.10;1.00;;;;;;5073367;28;20459;-70
2022/10/09 11:29:12;;;;;;;5.57;1.70;;;16.00;1.00;;;;;;5073423;28;20411;-70
2022/10/09 11:32:00;;;;;;;3.80;1.10;;;16.10;1.00;;;;;;5073742;28;20497;-70
2022/10/09 11:34:37;;;;;;;2.60;0.90;;;16.10;1.00;;;;;;5071437;28;20765;-70
2022/10/09 11:37:10;;;;;;;3.57;1.20;;;16.20;1.00;;;;;;5073258;28;20424;-70
2022/10/09 11:39:37;;;;;;;3.77;0.80;;;16.20;1.00;;;;;;5073076;28;20405;-69
2022/10/09 11:42:04;;;;;;;7.50;1.30;;;16.20;1.00;;;;;;5073534;28;20911;-69
2022/10/09 11:44:59;;;;;;;3.30;1.20;;;16.30;1.00;;;;;;5072681;28;20738;-70
2022/10/09 11:47:47;;;;;;;2.50;1.00;;;16.30;1.00;;;;;;5072101;28;20447;-70
2022/10/09 11:50:37;;;;;;;1.43;1.17;;;16.40;1.00;;;;;;5073386;28;20431;-69
2022/10/09 11:53:09;;;;;;;4.40;1.30;;;16.40;1.00;;;;;;5073119;28;20491;-68
2022/10/09 11:55:35;;;;;;;1.30;1.00;;;16.50;1.00;;;;;;5072065;28;20436;-69
2022/10/09 11:58:27;;;;;;;3.73;1.40;;;16.60;1.00;;;;;;5073209;28;20817;-68
2022/10/09 12:00:54;;;;;;;3.83;1.30;;;16.50;1.00;;;;;;5069205;28;20474;-69
2022/10/09 12:03:32;;;;;;;3.37;1.30;;;16.50;1.00;;;;;;5075684;28;20416;-68
2022/10/09 12:06:05;;;;;;;2.83;1.00;;;16.60;1.00;;;;;;5076637;28;20458;-68
2022/10/09 12:08:31;;;;;;;1.70;1.37;;;16.50;1.00;;;;;;5077248;28;20864;-70
2022/10/09 12:11:05;;;;;;;3.03;1.67;;;16.30;1.00;;;;;;5075994;28;20408;-69
2022/10/09 12:13:43;;;;;;;4.93;1.47;;;16.40;1.00;;;;;;5076463;28;20934;-68
2022/10/09 12:16:43;;;;;;;2.03;1.53;;;16.30;1.00;;;;;;5077085;28;20465;-70
2022/10/09 12:19:17;;;;;;;1.80;1.03;;;16.30;1.00;;;;;;5075512;28;20466;-71
2022/10/09 12:21:59;;;;;;;5.43;1.23;;;16.70;1.00;;;;;;5076904;28;20374;-69
2022/10/09 12:24:30;;;;;;;2.97;1.00;;;17.00;1.00;;;;;;5076249;28;20453;-70
2022/10/09 12:27:02;;;;;;;2.60;1.30;;;17.50;1.00;;;;;;5076489;28;20495;-73
2022/10/09 12:29:33;;;;;;;1.83;1.00;;;17.90;1.00;;;;;;5076393;28;20397;-70
2022/10/09 12:32:05;;;;;;;2.50;1.07;;;18.20;1.00;;;;;;5076579;28;20466;-69
2022/10/09 12:34:36;;;;;;;3.10;0.77;;;19.10;1.00;;;;;;5076101;28;20392;-70
2022/10/09 12:37:19;;;;;;;1.00;0.80;;;19.90;1.00;;;;;;5076430;28;20514;-71
2022/10/09 12:39:47;;;;;;;3.13;1.17;;;20.70;1.00;;;;;;5076742;28;20458;-71
2022/10/09 12:42:20;;;;;;;1.57;1.13;;;22.10;1.00;;;;;;5076714;28;20791;-71
2022/10/09 12:44:48;;;;;;;2.47;2.00;;;23.50;1.00;;;;;;5075769;28;20761;-71
2022/10/09 12:47:27;;;;;;;2.13;0.77;;;24.10;1.00;;;;;;5075849;28;20448;-72
2022/10/09 12:50:11;;;;;;;1.60;0.90;;;24.80;1.00;;;;;;5075483;28;20423;-72
2022/10/09 12:52:47;;;;;;;4.80;1.33;;;25.00;1.00;;;;;;5075114;28;20457;-72
2022/10/09 12:55:34;;;;;;;3.20;1.37;;;25.00;1.00;;;;;;5075599;28;20446;-71
2022/10/09 12:58:17;;;;;;;3.20;0.83;;;24.70;1.00;;;;;;5076253;28;20448;-72
2022/10/09 13:00:46;;;;;;;1.40;0.70;;;24.70;1.00;;;;;;5075207;28;20857;-70
2022/10/09 13:03:34;;;;;;;2.97;1.10;;;23.70;1.00;;;;;;5074663;28;20468;-70
2022/10/09 13:06:00;;;;;;;5.40;1.20;;;22.90;1.00;;;;;;5075254;28;20477;-70
2022/10/09 13:08:36;;;;;;;4.10;1.00;;;23.20;1.00;;;;;;5076045;28;20492;-71
2022/10/09 13:11:10;;;;;;;2.50;1.10;;;23.70;1.00;;;;;;5074653;28;20927;-70
2022/10/09 13:13:37;;;;;;;2.43;1.23;;;23.50;1.00;;;;;;5075036;28;20404;-76
2022/10/09 13:16:08;;;;;;;2.60;1.00;;;23.00;1.00;;;;;;5075940;28;20488;-71
2022/10/09 13:18:34;;;;;;;2.13;1.00;;;23.40;1.00;;;;;;5075953;28;20537;-71